Time;durP1;ratioP1;P1;durP2;ratioP2;P2;SDS_P1;SDS_P2;PMS_P1;PMS_P2;Temp;Humidity;BMP_temperature;BMP_pressure;BME280_temperature;BME280_humidity;BME280_pressure;Samples;Min_cycle;Max_cycle;Signal;HPM_P1;HPM_P2
2021/04/29 00:01:24;;;;;;;40.63;22.07;;;;;;;2.91;70.86;97288.01;1785112;79;21126;-72
2021/04/29 00:03:50;;;;;;;46.98;22.37;;;;;;;2.89;70.91;97280.20;1785222;80;21594;-72
2021/04/29 00:06:16;;;;;;;46.53;23.25;;;;;;;2.88;71.94;97281.27;1785158;79;21102;-72
2021/04/29 00:08:43;;;;;;;43.15;23.20;;;;;;;2.85;70.49;97284.98;1785208;80;21197;-72
2021/04/29 00:11:09;;;;;;;38.45;21.20;;;;;;;2.80;69.90;97283.03;1785157;79;21190;-72
2021/04/29 00:13:35;;;;;;;43.70;25.12;;;;;;;2.82;68.75;97288.97;1785142;80;21503;-72
2021/04/29 00:16:02;;;;;;;42.17;23.45;;;;;;;2.79;72.41;97291.59;1785217;79;21032;-72
2021/04/29 00:18:28;;;;;;;41.10;22.90;;;;;;;2.73;73.21;97285.07;1785218;80;21165;-72
2021/04/29 00:20:55;;;;;;;47.15;22.27;;;;;;;2.73;71.66;97286.41;1785153;79;21503;-72
2021/04/29 00:23:25;;;;;;;45.20;23.75;;;;;;;2.68;71.91;97288.50;1785139;79;21193;-72
2021/04/29 00:25:51;;;;;;;38.30;22.52;;;;;;;2.64;71.71;97290.03;1754749;79;21594;-72
2021/04/29 00:28:17;;;;;;;41.05;21.70;;;;;;;2.57;72.92;97288.09;1785150;80;21575;-72
2021/04/29 00:30:44;;;;;;;37.67;20.30;;;;;;;2.53;72.32;97281.06;1785176;79;21397;-72
2021/04/29 00:33:10;;;;;;;43.35;23.38;;;;;;;2.52;73.08;97291.48;1785132;80;21197;-72
2021/04/29 00:35:36;;;;;;;36.48;19.73;;;;;;;2.52;71.16;97290.68;1785175;80;21495;-73
2021/04/29 00:38:02;;;;;;;35.15;20.80;;;;;;;2.54;72.56;97289.90;1785149;79;21443;-72
2021/04/29 00:40:29;;;;;;;41.60;20.35;;;;;;;2.54;72.98;97292.05;1785146;80;21038;-72
2021/04/29 00:42:55;;;;;;;40.98;20.70;;;;;;;2.45;74.67;97284.69;1785235;79;21121;-72
2021/04/29 00:45:21;;;;;;;45.38;24.30;;;;;;;2.43;73.44;97284.94;1785128;80;21154;-72
2021/04/29 00:47:49;;;;;;;40.90;22.55;;;;;;;2.42;73.03;97286.52;1754517;80;21264;-72
2021/04/29 00:50:17;;;;;;;40.25;21.40;;;;;;;2.45;72.80;97286.02;1785129;80;21129;-72
2021/04/29 00:52:43;;;;;;;33.42;16.48;;;;;;;2.42;73.84;97286.00;1785478;79;21574;-72
2021/04/29 00:55:10;;;;;;;41.68;23.80;;;;;;;2.30;75.23;97280.44;1786093;79;21571;-72
2021/04/29 00:57:36;;;;;;;38.13;21.42;;;;;;;2.33;73.55;97286.66;1780753;79;21083;-72
2021/04/29 01:00:05;;;;;;;38.33;21.87;;;;;;;2.30;72.52;97283.92;1756565;80;21189;-72
2021/04/29 01:02:31;;;;;;;35.70;22.32;;;;;;;2.22;74.53;97284.33;1780777;79;21046;-72
2021/04/29 01:05:17;;;;;;;37.35;19.48;;;;;;;2.21;73.62;97279.52;1780761;80;21102;-72
2021/04/29 01:07:49;;;;;;;36.48;19.20;;;;;;;2.22;72.79;97282.50;1780635;79;21190;-72
2021/04/29 01:10:33;;;;;;;33.53;18.57;;;;;;;2.16;75.15;97279.45;1756893;80;21137;-73
2021/04/29 01:13:11;;;;;;;32.38;19.30;;;;;;;2.18;74.21;97285.89;1762165;81;21454;-73
2021/04/29 01:15:43;;;;;;;36.48;18.65;;;;;;;2.17;75.10;97276.25;1780621;80;21047;-73
2021/04/29 01:18:13;;;;;;;32.55;17.50;;;;;;;2.13;73.96;97283.12;1762219;81;21505;-73
2021/04/29 01:21:05;;;;;;;41.40;21.55;;;;;;;2.03;74.80;97271.75;1756501;80;21417;-73
2021/04/29 01:23:51;;;;;;;39.03;19.30;;;;;;;1.97;72.91;97272.74;1762175;81;21096;-73
2021/04/29 01:26:32;;;;;;;39.63;20.40;;;;;;;2.00;71.82;97276.25;1780455;79;22071;-73
2021/04/29 01:29:02;;;;;;;42.43;20.92;;;;;;;1.99;71.77;97270.63;1762135;81;21104;-72
2021/04/29 01:31:31;;;;;;;36.68;20.72;;;;;;;1.88;76.05;97268.82;1780731;79;21133;-72
2021/04/29 01:33:58;;;;;;;33.20;20.02;;;;;;;1.87;74.15;97275.22;1762208;81;21144;-72
2021/04/29 01:36:25;;;;;;;36.15;18.37;;;;;;;1.82;74.60;97273.29;1780616;79;21110;-72
2021/04/29 01:38:51;;;;;;;36.03;19.82;;;;;;;1.80;75.97;97271.39;1780670;80;21186;-72
2021/04/29 01:41:17;;;;;;;37.15;18.87;;;;;;;1.81;74.92;97270.34;1780566;79;21142;-72
2021/04/29 01:43:43;;;;;;;34.83;19.10;;;;;;;1.82;73.37;97273.29;1780776;80;21166;-72
2021/04/29 01:46:10;;;;;;;35.08;20.15;;;;;;;1.85;75.15;97271.98;1780601;79;21019;-72
2021/04/29 01:48:36;;;;;;;32.20;19.15;;;;;;;1.92;74.75;97266.77;1731882;82;21176;-73
2021/04/29 01:51:02;;;;;;;33.30;17.67;;;;;;;1.96;73.75;97271.91;1780646;79;21508;-73
2021/04/29 01:53:28;;;;;;;37.48;19.20;;;;;;;1.95;72.91;97272.95;1736147;81;21163;-73
2021/04/29 01:55:55;;;;;;;33.33;20.90;;;;;;;1.91;74.51;97270.50;1781671;79;21162;-73
2021/04/29 01:58:22;;;;;;;28.75;17.67;;;;;;;1.96;72.91;97262.55;1785069;80;21126;-73
2021/04/29 02:00:50;;;;;;;28.67;15.28;;;;;;;1.97;75.19;97266.87;1785177;79;21603;-73
2021/04/29 02:03:16;;;;;;;33.13;17.05;;;;;;;1.99;74.93;97265.28;1785166;80;21189;-73
2021/04/29 02:05:42;;;;;;;26.55;16.23;;;;;;;1.97;74.82;97261.52;1784974;80;21185;-73
2021/04/29 02:08:08;;;;;;;33.73;18.20;;;;;;;1.96;74.48;97257.20;1785164;80;21566;-73
2021/04/29 02:10:35;;;;;;;27.60;15.13;;;;;;;1.95;75.07;97250.77;1785045;80;21178;-73
2021/04/29 02:13:01;;;;;;;36.25;19.90;;;;;;;1.96;72.76;97254.53;1785085;79;21020;-73
2021/04/29 02:15:40;;;;;;;31.23;17.07;;;;;;;2.00;73.63;97258.08;1785012;80;21247;-73
2021/04/29 02:18:12;;;;;;;33.30;18.82;;;;;;;1.98;75.69;97259.66;1785102;79;21499;-72
2021/04/29 02:20:40;;;;;;;30.48;18.05;;;;;;;1.91;75.60;97258.48;1784387;80;21126;-73
2021/04/29 02:23:13;;;;;;;30.40;18.32;;;;;;;1.89;75.16;97251.77;1785313;79;21082;-73
2021/04/29 02:25:42;;;;;;;30.57;17.10;;;;;;;1.90;74.52;97252.05;1785229;80;21447;-73
2021/04/29 02:28:08;;;;;;;29.65;16.75;;;;;;;1.86;74.74;97251.70;1785171;80;21207;-74
2021/04/29 02:30:35;;;;;;;33.75;16.55;;;;;;;1.86;73.54;97261.58;1784998;80;21171;-72
2021/04/29 02:33:02;;;;;;;29.72;16.30;;;;;;;1.77;75.63;97261.17;1785063;79;21031;-72
2021/04/29 02:35:28;;;;;;;30.48;15.85;;;;;;;1.75;72.74;97259.27;1785079;80;21114;-72
2021/04/29 02:37:54;;;;;;;27.27;17.02;;;;;;;1.64;75.87;97258.83;1785011;79;21138;-72
2021/04/29 02:40:21;;;;;;;34.25;18.07;;;;;;;1.64;74.25;97260.16;1785024;80;21559;-72
2021/04/29 02:42:47;;;;;;;29.75;17.17;;;;;;;1.63;76.17;97261.22;1784924;79;21086;-72
2021/04/29 02:45:15;;;;;;;34.43;17.55;;;;;;;1.67;75.60;97262.34;1785085;80;21472;-72
2021/04/29 02:47:45;;;;;;;30.23;17.80;;;;;;;1.70;76.17;97260.51;1785084;79;21055;-72
2021/04/29 02:50:14;;;;;;;33.65;19.48;;;;;;;1.70;76.85;97254.64;1757450;80;21099;-73
2021/04/29 02:52:40;;;;;;;32.15;17.98;;;;;;;1.73;76.16;97248.03;1785258;79;21204;-73
2021/04/29 02:55:07;;;;;;;28.00;15.72;;;;;;;1.70;77.48;97254.64;1784985;80;21173;-73
2021/04/29 02:57:34;;;;;;;26.25;14.15;;;;;;;1.75;75.35;97257.94;1781371;79;21035;-73
2021/04/29 03:00:00;;;;;;;26.40;14.73;;;;;;;1.77;74.12;97257.16;1780613;80;21154;-73
2021/04/29 03:02:26;;;;;;;27.30;15.58;;;;;;;1.79;74.28;97260.39;1780595;79;21090;-73
2021/04/29 03:04:52;;;;;;;23.55;14.15;;;;;;;1.87;74.28;97258.66;1780632;80;21236;-73
2021/04/29 03:07:19;;;;;;;22.65;14.40;;;;;;;1.95;75.43;97252.11;1762009;81;21133;-73
2021/04/29 03:09:45;;;;;;;27.52;16.00;;;;;;;2.01;74.05;97260.50;1780616;80;21122;-73
2021/04/29 03:12:11;;;;;;;30.05;15.95;;;;;;;2.09;73.75;97253.94;1731706;81;21084;-73
2021/04/29 03:14:37;;;;;;;43.87;17.85;;;;;;;2.14;74.22;97260.72;1780632;80;21551;-73
2021/04/29 03:17:03;;;;;;;100.92;43.75;;;;;;;2.11;73.27;97252.64;1762080;81;22099;-74
2021/04/29 03:19:29;;;;;;;52.30;26.35;;;;;;;2.04;74.77;97258.67;1780512;80;21159;-73
2021/04/29 03:21:55;;;;;;;89.62;46.92;;;;;;;2.05;72.86;97256.30;1731728;81;21164;-73
2021/04/29 03:24:22;;;;;;;45.25;26.45;;;;;;;2.01;72.95;97258.36;1780579;80;21202;-73
2021/04/29 03:26:48;;;;;;;65.00;34.65;;;;;;;1.88;75.86;97254.97;1731841;81;21104;-73
2021/04/29 03:29:14;;;;;;;32.33;18.30;;;;;;;1.86;75.71;97258.91;1780656;80;21199;-73
2021/04/29 03:31:40;;;;;;;33.58;18.50;;;;;;;1.92;73.44;97260.09;1731690;81;21116;-73
2021/04/29 03:34:06;;;;;;;41.25;21.00;;;;;;;1.98;73.53;97264.48;1780649;80;21138;-73
2021/04/29 03:36:32;;;;;;;56.85;26.85;;;;;;;2.02;76.29;97255.96;1731875;81;21443;-73
2021/04/29 03:38:58;;;;;;;55.35;30.85;;;;;;;2.04;75.54;97261.34;1780796;80;21137;-73
2021/04/29 03:41:25;;;;;;;74.70;42.13;;;;;;;2.09;75.97;97252.08;1731860;81;21230;-73
2021/04/29 03:43:51;;;;;;;40.67;20.40;;;;;;;2.08;75.27;97258.48;1780673;80;21166;-73
2021/04/29 03:46:17;;;;;;;31.33;17.57;;;;;;;2.15;74.67;97251.11;1731958;81;21104;-73
2021/04/29 03:48:43;;;;;;;31.62;15.93;;;;;;;2.19;75.32;97255.42;1780765;80;21130;-73
2021/04/29 03:51:09;;;;;;;29.25;15.58;;;;;;;2.24;73.89;97248.30;1731868;81;21025;-73
2021/04/29 03:53:35;;;;;;;32.38;15.88;;;;;;;2.34;75.54;97255.66;1780690;80;21547;-73
2021/04/29 03:56:02;;;;;;;27.35;15.08;;;;;;;2.44;74.93;97259.81;1731933;81;21591;-73
2021/04/29 03:58:28;;;;;;;29.02;17.75;;;;;;;2.56;74.91;97258.36;1788865;80;21110;-73
2021/04/29 04:00:54;;;;;;;29.82;15.58;;;;;;;2.69;74.92;97260.69;1788838;78;21181;-73
2021/04/29 04:03:20;;;;;;;29.48;16.02;;;;;;;2.77;74.84;97256.78;1788756;80;21046;-73
2021/04/29 04:05:46;;;;;;;28.47;16.42;;;;;;;2.82;73.58;97259.53;1788799;78;21193;-73
2021/04/29 04:08:12;;;;;;;28.00;17.45;;;;;;;2.83;75.01;97245.09;1788704;80;21035;-73
2021/04/29 04:10:38;;;;;;;32.80;17.25;;;;;;;2.89;74.30;97249.43;1788795;80;21162;-73
2021/04/29 04:13:05;;;;;;;27.77;16.45;;;;;;;2.94;73.52;97250.03;1788709;78;21534;-73
2021/04/29 04:15:31;;;;;;;34.92;17.90;;;;;;;2.99;72.88;97252.25;1788834;80;21534;-73
2021/04/29 04:17:58;;;;;;;33.05;18.87;;;;;;;3.05;72.40;97252.57;1788718;78;21232;-73
2021/04/29 04:20:24;;;;;;;35.48;18.20;;;;;;;3.13;74.14;97249.18;1789040;80;21122;-73
2021/04/29 04:22:50;;;;;;;33.38;17.07;;;;;;;3.19;73.03;97247.66;1788983;78;21039;-73
2021/04/29 04:25:16;;;;;;;31.55;17.17;;;;;;;3.28;72.56;97252.84;1789111;80;21153;-73
2021/04/29 04:27:43;;;;;;;39.23;17.60;;;;;;;3.39;72.22;97253.22;1789058;78;21023;-73
2021/04/29 04:30:11;;;;;;;29.60;15.43;;;;;;;3.52;72.67;97252.02;1788933;80;21196;-73
2021/04/29 04:32:37;;;;;;;25.97;15.43;;;;;;;3.64;71.82;97247.84;1764703;80;21134;-73
2021/04/29 04:35:04;;;;;;;29.87;17.37;;;;;;;3.72;71.63;97246.04;1788723;80;21189;-73
2021/04/29 04:37:30;;;;;;;29.85;15.78;;;;;;;3.82;72.05;97243.44;1788700;78;21440;-73
2021/04/29 04:39:57;;;;;;;29.00;14.83;;;;;;;3.94;72.86;97244.10;1788787;80;21137;-73
2021/04/29 04:42:23;;;;;;;29.02;17.48;;;;;;;4.06;71.43;97241.77;1788658;78;21932;-73
2021/04/29 04:44:49;;;;;;;32.55;17.42;;;;;;;4.13;71.40;97239.14;1788774;80;21570;-73
2021/04/29 04:47:15;;;;;;;34.27;17.30;;;;;;;4.23;71.31;97238.41;1788778;78;21506;-73
2021/04/29 04:49:41;;;;;;;44.63;19.85;;;;;;;4.31;71.22;97239.80;1788780;80;21149;-73
2021/04/29 04:52:07;;;;;;;34.23;18.57;;;;;;;4.36;71.02;97228.58;1788830;78;21074;-73
2021/04/29 04:54:34;;;;;;;36.83;18.55;;;;;;;4.47;71.21;97233.47;1788756;80;21196;-73
2021/04/29 04:57:01;;;;;;;33.73;17.45;;;;;;;4.59;70.58;97241.30;1786177;78;21031;-73
2021/04/29 04:59:27;;;;;;;34.20;19.10;;;;;;;4.69;69.85;97229.28;1780693;80;21181;-73
2021/04/29 05:01:54;;;;;;;53.05;20.97;;;;;;;4.72;70.10;97236.83;1780651;79;21396;-73
2021/04/29 05:04:23;;;;;;;35.60;19.37;;;;;;;4.81;69.89;97237.95;1780779;80;21086;-73
2021/04/29 05:06:49;;;;;;;35.30;21.10;;;;;;;4.89;69.30;97237.45;1780656;79;21213;-73
2021/04/29 05:09:16;;;;;;;47.85;21.42;;;;;;;4.93;70.03;97231.00;1731883;82;21163;-73
2021/04/29 05:11:43;;;;;;;37.88;19.10;;;;;;;4.99;69.86;97228.63;1780601;79;21036;-73
2021/04/29 05:14:09;;;;;;;40.17;18.23;;;;;;;5.06;69.53;97230.53;1762081;81;21624;-73
2021/04/29 05:16:35;;;;;;;22.67;14.68;;;;;;;5.13;69.07;97227.08;1762097;81;21131;-73
2021/04/29 05:19:01;;;;;;;27.20;15.50;;;;;;;5.16;68.60;97219.82;1762086;81;21326;-73
2021/04/29 05:21:27;;;;;;;34.10;19.32;;;;;;;5.13;68.82;97222.20;1756385;80;21487;-73
2021/04/29 05:23:53;;;;;;;41.08;19.92;;;;;;;5.15;69.05;97224.92;1731815;82;21577;-73
2021/04/29 05:26:19;;;;;;;41.60;20.52;;;;;;;5.23;68.99;97221.73;1780723;79;21416;-73
2021/04/29 05:28:45;;;;;;;26.12;16.40;;;;;;;5.32;68.66;97213.42;1731922;82;21112;-73
2021/04/29 05:31:12;;;;;;;32.13;17.30;;;;;;;5.43;68.84;97216.93;1780612;79;22107;-73
2021/04/29 05:33:38;;;;;;;31.20;16.42;;;;;;;5.59;68.65;97216.42;1731750;82;21127;-73
2021/04/29 05:36:04;;;;;;;27.42;15.75;;;;;;;5.70;68.98;97215.35;1780595;79;21212;-73
2021/04/29 05:38:30;;;;;;;27.10;15.55;;;;;;;5.82;68.84;97210.53;1762121;81;21438;-73
2021/04/29 05:40:57;;;;;;;30.88;18.65;;;;;;;5.95;68.29;97202.48;1762120;81;21155;-73
2021/04/29 05:43:23;;;;;;;29.48;17.02;;;;;;;6.08;68.70;97207.88;1762061;81;21205;-73
2021/04/29 05:45:49;;;;;;;41.53;17.85;;;;;;;6.26;67.58;97210.00;1762004;81;21144;-73
2021/04/29 05:48:15;;;;;;;31.48;19.77;;;;;;;6.37;67.52;97206.75;1762059;81;21201;-73
2021/04/29 05:50:41;;;;;;;34.90;20.05;;;;;;;6.53;67.38;97209.68;1780608;80;21138;-73
2021/04/29 05:53:07;;;;;;;37.10;18.73;;;;;;;6.70;66.74;97203.98;1762126;81;21112;-73
2021/04/29 05:55:33;;;;;;;37.55;19.07;;;;;;;6.83;66.34;97199.34;1762049;81;21528;-73
2021/04/29 05:58:00;;;;;;;41.58;20.80;;;;;;;6.98;65.67;97200.63;1755374;80;21054;-73
2021/04/29 06:00:27;;;;;;;41.25;20.45;;;;;;;7.11;65.84;97201.13;1750606;81;21137;-72
2021/04/29 06:02:55;;;;;;;31.52;18.73;;;;;;;7.27;65.81;97196.73;1732295;81;21053;-72
2021/04/29 06:05:23;;;;;;;31.50;17.87;;;;;;;7.43;65.66;97186.64;1785501;80;21098;-73
2021/04/29 06:08:00;;;;;;;41.13;18.05;;;;;;;7.57;64.99;97196.27;1785000;79;21563;-73
2021/04/29 06:10:27;;;;;;;38.33;22.73;;;;;;;7.71;64.63;97189.17;1784977;80;21102;-73
2021/04/29 06:12:53;;;;;;;42.15;23.87;;;;;;;7.84;63.78;97184.47;1785072;80;21477;-72
2021/04/29 06:15:19;;;;;;;35.85;18.92;;;;;;;7.95;63.16;97185.73;1785058;80;21606;-73
2021/04/29 06:17:45;;;;;;;42.50;18.52;;;;;;;8.06;63.18;97187.27;1785035;79;21083;-73
2021/04/29 06:20:13;;;;;;;38.75;20.12;;;;;;;8.19;62.96;97188.75;1785032;80;21256;-73
2021/04/29 06:22:39;;;;;;;51.77;22.22;;;;;;;8.35;62.89;97185.94;1784955;79;21457;-73
2021/04/29 06:25:07;;;;;;;45.92;19.50;;;;;;;8.55;62.63;97188.45;1785113;80;21162;-73
2021/04/29 06:27:33;;;;;;;40.73;21.33;;;;;;;8.72;61.96;97190.15;1785288;79;21413;-73
2021/04/29 06:30:00;;;;;;;44.45;26.35;;;;;;;8.82;61.78;97181.12;1785066;80;21555;-73
2021/04/29 06:32:26;;;;;;;51.33;26.75;;;;;;;8.99;61.67;97184.70;1785058;79;22097;-73
2021/04/29 06:34:52;;;;;;;50.00;27.25;;;;;;;9.11;61.30;97178.31;1785041;80;21579;-73
2021/04/29 06:37:18;;;;;;;41.68;24.23;;;;;;;9.27;60.97;97182.98;1785090;79;21102;-73
2021/04/29 06:39:46;;;;;;;44.42;24.80;;;;;;;9.41;60.43;97179.81;1785091;80;21193;-73
2021/04/29 06:42:13;;;;;;;47.67;26.65;;;;;;;9.56;60.52;97174.71;1785013;79;21042;-73
2021/04/29 06:44:41;;;;;;;48.55;26.87;;;;;;;9.71;60.05;97179.89;1785042;80;21251;-73
2021/04/29 06:47:08;;;;;;;45.67;23.18;;;;;;;9.85;60.07;97171.84;1784972;79;21090;-73
2021/04/29 06:49:34;;;;;;;40.25;24.30;;;;;;;9.99;59.75;97174.03;1785099;80;21067;-73
2021/04/29 06:52:01;;;;;;;50.60;24.43;;;;;;;10.10;59.11;97166.56;1785130;79;21415;-73
2021/04/29 06:54:27;;;;;;;33.65;21.65;;;;;;;10.22;59.19;97163.38;1785083;80;21783;-73
2021/04/29 06:56:54;;;;;;;39.90;21.02;;;;;;;10.29;58.23;97165.98;1785126;79;22281;-73
2021/04/29 06:59:20;;;;;;;40.80;22.40;;;;;;;10.36;57.82;97158.83;1780579;80;21051;-73
2021/04/29 07:01:46;;;;;;;32.15;20.88;;;;;;;10.36;57.35;97157.47;1780597;79;21118;-73
2021/04/29 07:04:12;;;;;;;38.55;20.75;;;;;;;10.43;57.55;97147.86;1780662;80;21102;-73
2021/04/29 07:06:38;;;;;;;29.23;19.48;;;;;;;10.51;57.84;97140.11;1780724;79;21105;-73
2021/04/29 07:09:06;;;;;;;34.33;20.20;;;;;;;10.60;57.52;97150.53;1762093;81;21272;-73
2021/04/29 07:11:32;;;;;;;31.70;19.20;;;;;;;10.78;57.74;97159.11;1780707;79;21040;-73
2021/04/29 07:13:58;;;;;;;36.38;17.80;;;;;;;10.98;57.74;97155.97;1762180;81;21549;-73
2021/04/29 07:16:25;;;;;;;43.00;21.27;;;;;;;11.16;57.56;97152.88;1780707;79;21149;-73
2021/04/29 07:18:51;;;;;;;28.23;19.23;;;;;;;11.33;57.07;97152.24;1731971;82;21036;-73
2021/04/29 07:21:17;;;;;;;40.20;21.00;;;;;;;11.53;56.68;97155.05;1780792;79;21191;-73
2021/04/29 07:23:47;;;;;;;35.48;19.48;;;;;;;11.71;55.99;97145.16;1762246;81;21041;-73
2021/04/29 07:26:11;;;;;;;38.78;19.98;;;;;;;11.84;55.16;97141.59;1780741;79;21031;-73
2021/04/29 07:28:38;;;;;;;33.45;20.37;;;;;;;11.91;55.06;97147.95;1731965;82;21516;-73
2021/04/29 07:31:04;;;;;;;33.63;20.90;;;;;;;11.95;55.45;97145.66;1780797;79;21670;-73
2021/04/29 07:33:30;;;;;;;36.15;20.65;;;;;;;12.04;55.07;97143.80;1731928;82;22221;-73
2021/04/29 07:35:57;;;;;;;40.30;26.17;;;;;;;12.70;54.84;97146.69;1780635;79;21154;-73
2021/04/29 07:38:23;;;;;;;31.57;20.65;;;;;;;13.93;53.96;97137.84;1762140;81;21494;-73
2021/04/29 07:40:49;;;;;;;35.55;20.30;;;;;;;14.95;53.06;97137.03;1780806;79;21566;-73
2021/04/29 07:43:16;;;;;;;18.77;13.18;;;;;;;16.02;49.12;97133.72;1731918;82;21139;-73
2021/04/29 07:45:42;;;;;;;14.55;9.68;;;;;;;16.41;48.66;97134.29;1780854;80;21235;-73
2021/04/29 07:48:08;;;;;;;21.17;11.25;;;;;;;17.02;47.79;97126.16;1731992;82;21135;-73
2021/04/29 07:50:35;;;;;;;28.85;11.15;;;;;;;17.64;46.24;97125.48;1780760;80;21173;-73
2021/04/29 07:53:01;;;;;;;15.13;9.38;;;;;;;18.23;45.85;97126.98;1762085;81;21041;-73
2021/04/29 07:55:27;;;;;;;20.25;9.10;;;;;;;18.83;44.31;97122.85;1762144;81;21144;-73
2021/04/29 07:57:54;;;;;;;23.50;9.43;;;;;;;19.29;42.61;97119.02;1779982;78;21175;-74
2021/04/29 08:00:20;;;;;;;15.03;8.50;;;;;;;19.69;39.29;97116.80;1778004;80;21125;-73
2021/04/29 08:02:47;;;;;;;21.52;9.83;;;;;;;20.45;39.90;97104.74;1777954;79;21139;-73
2021/04/29 08:05:13;;;;;;;17.17;8.80;;;;;;;19.96;40.66;97113.61;1777972;80;21150;-73
2021/04/29 08:07:39;;;;;;;16.75;9.08;;;;;;;20.06;39.47;97103.97;1777950;79;21043;-73
2021/04/29 08:10:07;;;;;;;15.55;9.48;;;;;;;20.61;38.07;97096.37;1778119;80;21190;-74
2021/04/29 08:12:33;;;;;;;14.40;8.55;;;;;;;21.01;37.02;97095.03;1777991;79;21031;-74
2021/04/29 08:15:00;;;;;;;13.40;9.28;;;;;;;21.05;38.26;97089.01;1777939;80;21134;-74
2021/04/29 08:17:27;;;;;;;13.28;7.12;;;;;;;22.26;35.69;97085.09;1777953;79;21106;-73
2021/04/29 08:19:54;;;;;;;16.27;7.87;;;;;;;22.86;36.29;97086.84;1778035;80;21401;-73
2021/04/29 08:22:22;;;;;;;13.10;7.30;;;;;;;23.30;33.87;97093.08;1778015;79;21200;-73
2021/04/29 08:24:48;;;;;;;25.50;8.43;;;;;;;22.18;34.28;97084.80;1777987;80;21106;-73
2021/04/29 08:27:14;;;;;;;12.63;7.75;;;;;;;21.44;35.23;97080.52;1778045;79;21409;-73
2021/04/29 08:29:40;;;;;;;16.17;7.55;;;;;;;21.64;35.24;97081.99;1778094;80;21083;-73
2021/04/29 08:32:06;;;;;;;12.10;8.00;;;;;;;21.89;35.45;97076.20;1778154;79;21494;-73
2021/04/29 08:34:33;;;;;;;10.88;6.20;;;;;;;22.44;35.62;97070.88;1777983;80;22129;-73
2021/04/29 08:36:59;;;;;;;14.80;6.47;;;;;;;24.21;33.52;97069.59;1778067;79;21023;-73
2021/04/29 08:39:25;;;;;;;12.53;5.17;;;;;;;24.08;34.02;97063.62;1778001;80;21110;-73
2021/04/29 08:41:52;;;;;;;6.45;4.55;;;;;;;23.34;33.24;97064.89;1778024;79;21011;-73
2021/04/29 08:44:18;;;;;;;8.85;4.40;;;;;;;22.60;33.97;97053.27;1778004;80;21495;-73
2021/04/29 08:46:44;;;;;;;17.82;5.53;;;;;;;23.41;33.47;97063.31;1778033;79;22041;-74
2021/04/29 08:49:10;;;;;;;11.53;5.65;;;;;;;23.39;33.36;97058.77;1777948;80;21047;-73
2021/04/29 08:51:38;;;;;;;9.18;3.52;;;;;;;22.49;34.22;97060.88;1778026;79;21086;-73
2021/04/29 08:54:04;;;;;;;8.30;3.08;;;;;;;22.13;34.12;97058.37;1778000;80;21046;-73
2021/04/29 08:56:30;;;;;;;9.43;3.37;;;;;;;21.55;35.00;97056.09;1778105;79;21406;-73
2021/04/29 08:58:58;;;;;;;15.32;4.90;;;;;;;21.82;34.94;97059.56;1781743;80;21088;-73
2021/04/29 09:01:24;;;;;;;6.00;3.75;;;;;;;22.09;34.79;97063.04;1785231;79;21127;-74
2021/04/29 09:03:51;;;;;;;38.42;5.58;;;;;;;21.94;34.77;97063.43;1785180;80;21495;-73
2021/04/29 09:06:18;;;;;;;11.65;3.37;;;;;;;22.78;33.77;97059.14;1785177;79;21103;-72
2021/04/29 09:08:45;;;;;;;25.17;4.35;;;;;;;22.81;33.12;97058.36;1756631;80;21119;-73
2021/04/29 09:11:15;;;;;;;10.32;3.52;;;;;;;23.19;32.52;97056.89;1785141;79;21144;-73
2021/04/29 09:13:43;;;;;;;6.20;2.25;;;;;;;24.35;31.70;97050.26;1784953;80;21059;-73
2021/04/29 09:16:12;;;;;;;9.90;3.33;;;;;;;25.49;29.53;97039.72;1783062;79;21047;-73
2021/04/29 09:18:40;;;;;;;7.17;2.75;;;;;;;25.49;29.76;97057.14;1785308;80;21130;-73
2021/04/29 09:21:14;;;;;;;10.53;3.27;;;;;;;25.70;29.28;97048.54;1785302;79;21193;-73
2021/04/29 09:23:47;;;;;;;7.62;2.83;;;;;;;25.01;29.78;97053.44;1785269;80;21186;-73
2021/04/29 09:26:19;;;;;;;6.72;3.02;;;;;;;25.16;29.07;97042.38;1785201;79;21047;-73
2021/04/29 09:28:50;;;;;;;7.45;3.67;;;;;;;25.35;29.15;97045.30;1784595;80;21146;-73
2021/04/29 09:31:20;;;;;;;6.15;3.33;;;;;;;23.41;30.89;97059.96;1784711;79;21108;-73
2021/04/29 09:33:49;;;;;;;5.80;3.50;;;;;;;24.50;30.24;97052.46;1785194;80;21126;-72
2021/04/29 09:36:30;;;;;;;5.35;3.10;;;;;;;24.34;30.05;97045.91;1785205;79;21142;-72
2021/04/29 09:39:09;;;;;;;13.95;3.42;;;;;;;24.38;29.86;97042.57;1785105;80;21090;-72
2021/04/29 09:41:37;;;;;;;13.05;4.05;;;;;;;23.58;31.34;97054.32;1785155;79;21162;-72
2021/04/29 09:44:07;;;;;;;;;;;;;;;22.82;32.30;97056.42;1759740;80;21641;-72
2021/04/29 09:47:00;;;;;;;3.85;2.20;;;;;;;21.33;34.67;97056.97;1785095;79;20218;-74
2021/04/29 09:49:34;;;;;;;11.80;3.20;;;;;;;20.80;35.86;97056.96;1784648;80;21397;-72
2021/04/29 09:52:06;;;;;;;9.28;3.52;;;;;;;20.04;37.10;97051.31;1785114;79;21042;-71
2021/04/29 09:54:37;;;;;;;4.78;3.02;;;;;;;19.72;37.86;97052.06;1756022;80;21051;-72
2021/04/29 09:57:06;;;;;;;8.18;3.67;;;;;;;19.05;39.08;97065.91;1785148;79;21182;-72
2021/04/29 09:59:41;;;;;;;8.15;3.70;;;;;;;18.65;39.70;97048.88;1782222;80;21109;-72
2021/04/29 10:02:05;;;;;;;11.70;5.28;;;;;;;18.53;40.28;97057.41;1780345;79;21254;-72
2021/04/29 10:04:31;;;;;;;9.03;3.00;;;;;;;18.36;41.09;97050.91;1707413;80;21166;-72
2021/04/29 10:07:00;;;;;;;14.03;3.27;;;;;;;18.47;40.73;97046.50;1780720;79;21106;-72
2021/04/29 10:09:30;;;;;;;;;;;;;;;18.45;40.53;97050.16;1783400;80;21087;-72
2021/04/29 10:12:05;;;;;;;6.95;3.27;;;;;;;18.42;40.48;97050.08;1780851;79;20247;-72
2021/04/29 10:14:35;;;;;;;5.35;2.72;;;;;;;18.49;40.82;97053.00;1758477;80;21131;-72
2021/04/29 10:17:10;;;;;;;6.58;3.65;;;;;;;18.33;41.05;97046.94;1760754;81;21044;-72
2021/04/29 10:19:50;;;;;;;8.18;3.70;;;;;;;18.12;41.21;97047.77;1780745;80;21091;-72
2021/04/29 10:22:16;;;;;;;25.90;5.30;;;;;;;17.89;41.57;97050.29;1735881;81;21132;-72
2021/04/29 10:24:44;;;;;;;7.97;4.03;;;;;;;17.94;41.75;97050.59;1780803;80;21102;-72
2021/04/29 10:27:12;;;;;;;11.80;5.33;;;;;;;18.01;41.84;97050.21;1736805;81;22059;-72
2021/04/29 10:29:39;;;;;;;5.90;3.62;;;;;;;17.98;42.00;97053.66;1780782;80;21094;-72
2021/04/29 10:32:11;;;;;;;6.05;3.98;;;;;;;18.07;41.57;97047.23;1762181;81;21139;-72
2021/04/29 10:34:44;;;;;;;10.78;5.90;;;;;;;18.10;41.67;97043.20;1780674;80;21098;-72
2021/04/29 10:37:23;;;;;;;5.50;4.22;;;;;;;18.11;41.80;97045.36;1762192;81;21029;-71
2021/04/29 10:39:55;;;;;;;6.03;3.40;;;;;;;18.17;41.67;97047.50;1780716;80;21237;-72
2021/04/29 10:42:28;;;;;;;12.45;3.98;;;;;;;18.11;41.91;97041.25;1780613;79;21051;-71
2021/04/29 10:44:59;;;;;;;7.80;3.92;;;;;;;18.17;42.09;97042.02;1780714;80;21138;-71
2021/04/29 10:47:27;;;;;;;27.20;5.62;;;;;;;18.18;42.02;97044.97;1778966;79;21106;-72
2021/04/29 10:50:10;;;;;;;;;;;;;;;18.29;41.60;97040.58;1783427;80;21019;-72
2021/04/29 10:52:56;;;;;;;6.80;4.12;;;;;;;18.20;41.74;97046.81;1780820;79;21191;-73
2021/04/29 10:55:36;;;;;;;8.58;4.75;;;;;;;18.17;41.89;97039.84;1780220;80;38205;-72
2021/04/29 10:58:04;;;;;;;9.05;4.60;;;;;;;18.29;41.82;97041.95;1780717;79;21067;-72
2021/04/29 11:00:33;;;;;;;7.75;4.30;;;;;;;18.50;41.55;97040.30;1780761;80;21083;-72
2021/04/29 11:03:07;;;;;;;4.67;3.25;;;;;;;18.59;41.60;97044.23;1780786;79;21004;-72
2021/04/29 11:05:35;;;;;;;11.08;4.78;;;;;;;18.71;41.51;97047.47;1780678;80;21184;-72
2021/04/29 11:08:09;;;;;;;8.05;4.50;;;;;;;18.95;41.15;97051.37;1780752;79;21023;-71
2021/04/29 11:10:37;;;;;;;10.15;4.65;;;;;;;19.02;40.96;97052.91;1780710;80;21158;-72
2021/04/29 11:13:03;;;;;;;14.60;7.10;;;;;;;19.11;40.63;97047.22;1780828;79;21019;-71
2021/04/29 11:15:37;;;;;;;9.85;5.05;;;;;;;19.17;40.50;97036.19;1780638;80;21066;-71
2021/04/29 11:18:13;;;;;;;7.47;4.03;;;;;;;19.09;40.04;97042.67;1780802;79;21344;-72
2021/04/29 11:20:57;;;;;;;6.58;4.60;;;;;;;18.75;40.64;97040.93;1780620;80;21098;-72
2021/04/29 11:23:40;;;;;;;9.18;5.22;;;;;;;18.58;41.10;97046.76;1780747;80;21087;-71
2021/04/29 11:26:08;;;;;;;6.70;4.00;;;;;;;18.54;41.33;97049.97;1777263;79;21158;-72
2021/04/29 11:28:34;;;;;;;8.80;4.33;;;;;;;18.50;41.71;97055.39;1736378;81;21140;-71
2021/04/29 11:31:00;;;;;;;6.75;4.22;;;;;;;18.58;41.48;97055.78;1780666;79;21864;-71